Live aus Altenrhein
LIVE
LSZR 232020Z AUTO 04007KT 7000 BKN027 M01/M05 Q1013
Zeitraffer heute
2018-02-23 00:14:56
LSZR 222250Z AUTO 05009KT 020V090 9000 OVC036 M01/M05 Q1012
Zeitraffer gestern
2018-02-22 00:14:58
LSZR 212250Z AUTO 04009KT 360V090 6000 BKN041 M00/M04 Q1014
Zeitraffer vor 3 Tagen
2018-02-20 00:14:52
LSZR 192250Z AUTO 23003KT 9999 BKN042 00/M02 Q1014